Pagrindinis puslapis
METAR-TAF:

METAR-TAF

Oro uostai :

Natchitoches Regional Airport

Natchitoches, Luiziana, Jungtinės Amerikos Valstijos

platuma: 31-44-09N, ilguma: 093-05-57W, Aukštis: 37 m

Dabartinis oras

Ataskaita buvo paskelbta 11 minutes, ne 11:40 UTC
Ramus vėjas
Temperatūra 18°C
Drėgmė 100%
Slėgis 1017 hPa
Matomumas: 11.3 km
Giedras dangus

METAR: KIER 291140Z AUTO 00000KT 7SM CLR 18/18 A3003 RMK AO2 T01800180

Laikas: 06:51 (11:51 UTC)


TAF: trūkstamas

Orai ataskaitas ir orų prognozės (METAR, TAF).

turimą stotys yra geltonos ir raudonos taškus žemėlapyje.

Perkelti pele per norėdami pamatyti stoties vardą.

Tada spustelėkite, norėdami matyti oro stebėjimo ir prognozės.

Norėdami pakeisti žemėlapį: spustelėkite ant žalios mygtukų su juodo kryžiaus žemyn,; žalią mygtuką su brūkšneliu, jei norite nutolinti; arba žalių rodyklių gretimoms žemėlapius.


METAR-TAF: